sensor_id;sensor_type;location;lat;lon;timestamp;P1;durP1;ratioP1;P2;durP2;ratioP2
43519;SDS011;46848;51.980;5.918;2023-03-08T00:00:50;6.00;;;3.80;;
43519;SDS011;46848;51.980;5.918;2023-03-08T00:03:16;6.30;;;3.40;;
43519;SDS011;46848;51.980;5.918;2023-03-08T00:05:41;8.10;;;4.80;;
43519;SDS011;46848;51.980;5.918;2023-03-08T00:08:07;7.67;;;5.70;;
43519;SDS011;46848;51.980;5.918;2023-03-08T00:10:33;9.50;;;5.93;;
43519;SDS011;46848;51.980;5.918;2023-03-08T00:12:58;9.83;;;5.90;;
43519;SDS011;46848;51.980;5.918;2023-03-08T00:15:24;9.40;;;6.10;;
43519;SDS011;46848;51.980;5.918;2023-03-08T00:17:50;9.17;;;5.57;;
43519;SDS011;46848;51.980;5.918;2023-03-08T00:20:15;7.63;;;5.67;;
43519;SDS011;46848;51.980;5.918;2023-03-08T00:22:41;7.40;;;5.50;;
43519;SDS011;46848;51.980;5.918;2023-03-08T00:25:08;7.23;;;5.43;;
43519;SDS011;46848;51.980;5.918;2023-03-08T00:27:35;9.63;;;6.17;;
43519;SDS011;46848;51.980;5.918;2023-03-08T00:30:02;10.03;;;5.97;;
43519;SDS011;46848;51.980;5.918;2023-03-08T00:32:30;9.27;;;5.43;;
43519;SDS011;46848;51.980;5.918;2023-03-08T00:34:56;8.47;;;6.00;;
43519;SDS011;46848;51.980;5.918;2023-03-08T00:37:22;9.50;;;6.40;;
43519;SDS011;46848;51.980;5.918;2023-03-08T00:39:49;8.73;;;6.47;;
43519;SDS011;46848;51.980;5.918;2023-03-08T00:42:16;10.67;;;6.63;;
43519;SDS011;46848;51.980;5.918;2023-03-08T00:44:42;9.70;;;6.90;;
43519;SDS011;46848;51.980;5.918;2023-03-08T00:47:07;10.97;;;6.83;;
43519;SDS011;46848;51.980;5.918;2023-03-08T00:49:33;10.80;;;7.67;;
43519;SDS011;46848;51.980;5.918;2023-03-08T00:51:59;13.43;;;8.23;;
43519;SDS011;46848;51.980;5.918;2023-03-08T00:54:24;11.67;;;7.70;;
43519;SDS011;46848;51.980;5.918;2023-03-08T00:56:50;10.33;;;8.07;;
43519;SDS011;46848;51.980;5.918;2023-03-08T00:59:15;11.10;;;7.37;;
43519;SDS011;46848;51.980;5.918;2023-03-08T01:01:41;10.07;;;7.70;;
43519;SDS011;46848;51.980;5.918;2023-03-08T01:04:07;11.10;;;7.50;;
43519;SDS011;46848;51.980;5.918;2023-03-08T01:06:32;15.87;;;9.33;;
43519;SDS011;46848;51.980;5.918;2023-03-08T01:08:58;10.57;;;8.03;;
43519;SDS011;46848;51.980;5.918;2023-03-08T01:11:25;12.87;;;8.57;;
43519;SDS011;46848;51.980;5.918;2023-03-08T01:13:51;10.87;;;8.07;;
43519;SDS011;46848;51.980;5.918;2023-03-08T01:16:25;12.53;;;8.47;;
43519;SDS011;46848;51.980;5.918;2023-03-08T01:18:53;11.67;;;9.10;;
43519;SDS011;46848;51.980;5.918;2023-03-08T01:21:20;13.93;;;8.40;;
43519;SDS011;46848;51.980;5.918;2023-03-08T01:23:46;12.67;;;8.83;;
43519;SDS011;46848;51.980;5.918;2023-03-08T01:26:13;12.30;;;7.80;;
43519;SDS011;46848;51.980;5.918;2023-03-08T01:28:41;12.53;;;8.00;;
43519;SDS011;46848;51.980;5.918;2023-03-08T01:31:08;11.57;;;7.67;;
43519;SDS011;46848;51.980;5.918;2023-03-08T01:33:36;11.57;;;7.80;;
43519;SDS011;46848;51.980;5.918;2023-03-08T01:36:06;12.20;;;8.77;;
43519;SDS011;46848;51.980;5.918;2023-03-08T01:38:34;11.65;;;8.30;;
43519;SDS011;46848;51.980;5.918;2023-03-08T01:41:01;13.13;;;9.00;;
43519;SDS011;46848;51.980;5.918;2023-03-08T01:43:32;13.80;;;9.20;;
43519;SDS011;46848;51.980;5.918;2023-03-08T01:51:36;13.33;;;9.67;;
43519;SDS011;46848;51.980;5.918;2023-03-08T01:54:10;11.93;;;8.70;;
43519;SDS011;46848;51.980;5.918;2023-03-08T01:56:57;13.67;;;8.67;;
43519;SDS011;46848;51.980;5.918;2023-03-08T01:59:29;13.27;;;8.83;;
43519;SDS011;46848;51.980;5.918;2023-03-08T02:01:57;12.03;;;8.57;;
43519;SDS011;46848;51.980;5.918;2023-03-08T02:04:23;13.70;;;9.67;;
43519;SDS011;46848;51.980;5.918;2023-03-08T02:06:50;15.43;;;8.93;;
43519;SDS011;46848;51.980;5.918;2023-03-08T02:09:15;13.73;;;9.97;;
43519;SDS011;46848;51.980;5.918;2023-03-08T02:11:41;14.20;;;9.77;;
43519;SDS011;46848;51.980;5.918;2023-03-08T02:14:07;14.17;;;9.97;;
43519;SDS011;46848;51.980;5.918;2023-03-08T02:16:32;15.20;;;9.37;;
43519;SDS011;46848;51.980;5.918;2023-03-08T02:18:59;16.67;;;10.37;;
43519;SDS011;46848;51.980;5.918;2023-03-08T02:21:27;14.93;;;9.60;;
43519;SDS011;46848;51.980;5.918;2023-03-08T02:23:54;13.00;;;8.97;;
43519;SDS011;46848;51.980;5.918;2023-03-08T02:26:20;14.93;;;9.87;;
43519;SDS011;46848;51.980;5.918;2023-03-08T02:28:46;15.47;;;10.03;;
43519;SDS011;46848;51.980;5.918;2023-03-08T02:31:13;15.93;;;10.23;;
43519;SDS011;46848;51.980;5.918;2023-03-08T02:33:40;14.63;;;9.77;;
43519;SDS011;46848;51.980;5.918;2023-03-08T02:36:06;15.23;;;10.03;;
43519;SDS011;46848;51.980;5.918;2023-03-08T02:38:33;15.30;;;10.37;;
43519;SDS011;46848;51.980;5.918;2023-03-08T02:41:00;13.70;;;9.87;;
43519;SDS011;46848;51.980;5.918;2023-03-08T02:43:26;14.53;;;9.40;;
43519;SDS011;46848;51.980;5.918;2023-03-08T02:45:51;15.30;;;9.93;;
43519;SDS011;46848;51.980;5.918;2023-03-08T02:48:17;16.00;;;9.80;;
43519;SDS011;46848;51.980;5.918;2023-03-08T02:50:43;14.03;;;9.60;;
43519;SDS011;46848;51.980;5.918;2023-03-08T02:53:09;17.83;;;9.57;;
43519;SDS011;46848;51.980;5.918;2023-03-08T02:55:35;12.77;;;9.27;;
43519;SDS011;46848;51.980;5.918;2023-03-08T02:58:05;13.80;;;8.97;;
43519;SDS011;46848;51.980;5.918;2023-03-08T03:00:31;17.57;;;10.77;;
43519;SDS011;46848;51.980;5.918;2023-03-08T03:02:57;17.40;;;10.67;;
43519;SDS011;46848;51.980;5.918;2023-03-08T03:05:23;17.17;;;10.67;;
43519;SDS011;46848;51.980;5.918;2023-03-08T03:07:49;15.07;;;10.00;;
43519;SDS011;46848;51.980;5.918;2023-03-08T03:10:15;15.37;;;10.23;;
43519;SDS011;46848;51.980;5.918;2023-03-08T03:12:40;19.37;;;11.77;;
43519;SDS011;46848;51.980;5.918;2023-03-08T03:15:08;18.10;;;11.07;;
43519;SDS011;46848;51.980;5.918;2023-03-08T03:17:34;23.17;;;13.53;;
43519;SDS011;46848;51.980;5.918;2023-03-08T03:20:01;19.23;;;13.27;;
43519;SDS011;46848;51.980;5.918;2023-03-08T03:22:29;17.53;;;12.17;;
43519;SDS011;46848;51.980;5.918;2023-03-08T03:24:54;17.57;;;11.47;;
43519;SDS011;46848;51.980;5.918;2023-03-08T03:27:20;16.77;;;10.80;;
43519;SDS011;46848;51.980;5.918;2023-03-08T03:29:45;18.40;;;10.13;;
43519;SDS011;46848;51.980;5.918;2023-03-08T03:32:11;17.73;;;11.77;;
43519;SDS011;46848;51.980;5.918;2023-03-08T03:34:37;23.63;;;14.17;;
43519;SDS011;46848;51.980;5.918;2023-03-08T03:37:03;26.60;;;13.43;;
43519;SDS011;46848;51.980;5.918;2023-03-08T03:39:28;22.20;;;13.47;;
43519;SDS011;46848;51.980;5.918;2023-03-08T03:41:58;21.53;;;13.57;;
43519;SDS011;46848;51.980;5.918;2023-03-08T03:44:24;27.40;;;15.03;;
43519;SDS011;46848;51.980;5.918;2023-03-08T03:46:50;26.47;;;15.60;;
43519;SDS011;46848;51.980;5.918;2023-03-08T03:49:15;30.97;;;16.93;;
43519;SDS011;46848;51.980;5.918;2023-03-08T03:51:41;26.43;;;15.87;;
43519;SDS011;46848;51.980;5.918;2023-03-08T03:54:07;38.03;;;17.73;;
43519;SDS011;46848;51.980;5.918;2023-03-08T03:56:32;43.77;;;21.50;;
43519;SDS011;46848;51.980;5.918;2023-03-08T03:58:58;47.87;;;22.17;;
43519;SDS011;46848;51.980;5.918;2023-03-08T04:01:27;46.50;;;23.10;;
43519;SDS011;46848;51.980;5.918;2023-03-08T04:03:54;38.10;;;21.33;;
43519;SDS011;46848;51.980;5.918;2023-03-08T04:06:25;37.80;;;21.07;;
43519;SDS011;46848;51.980;5.918;2023-03-08T04:08:53;39.45;;;20.42;;
43519;SDS011;46848;51.980;5.918;2023-03-08T04:11:21;42.33;;;20.87;;
43519;SDS011;46848;51.980;5.918;2023-03-08T04:13:48;42.83;;;20.17;;
43519;SDS011;46848;51.980;5.918;2023-03-08T04:16:15;46.50;;;22.47;;
43519;SDS011;46848;51.980;5.918;2023-03-08T04:18:46;41.65;;;22.50;;
43519;SDS011;46848;51.980;5.918;2023-03-08T04:21:12;40.03;;;21.07;;
43519;SDS011;46848;51.980;5.918;2023-03-08T04:23:38;47.07;;;21.67;;
43519;SDS011;46848;51.980;5.918;2023-03-08T04:26:04;61.87;;;25.13;;
43519;SDS011;46848;51.980;5.918;2023-03-08T04:28:43;49.77;;;24.63;;
43519;SDS011;46848;51.980;5.918;2023-03-08T04:31:31;48.93;;;24.77;;
43519;SDS011;46848;51.980;5.918;2023-03-08T04:33:59;48.53;;;24.80;;
43519;SDS011;46848;51.980;5.918;2023-03-08T04:36:25;51.50;;;24.90;;
43519;SDS011;46848;51.980;5.918;2023-03-08T04:38:50;45.07;;;22.57;;
43519;SDS011;46848;51.980;5.918;2023-03-08T04:41:16;45.17;;;23.00;;
43519;SDS011;46848;51.980;5.918;2023-03-08T04:43:43;50.10;;;24.70;;
43519;SDS011;46848;51.980;5.918;2023-03-08T04:46:11;44.70;;;23.03;;
43519;SDS011;46848;51.980;5.918;2023-03-08T04:48:37;47.83;;;24.87;;
43519;SDS011;46848;51.980;5.918;2023-03-08T04:51:03;55.53;;;27.87;;
43519;SDS011;46848;51.980;5.918;2023-03-08T04:53:31;53.73;;;26.93;;
43519;SDS011;46848;51.980;5.918;2023-03-08T04:55:57;51.23;;;25.40;;
43519;SDS011;46848;51.980;5.918;2023-03-08T04:58:26;50.23;;;26.47;;
43519;SDS011;46848;51.980;5.918;2023-03-08T05:00:52;46.93;;;26.43;;
43519;SDS011;46848;51.980;5.918;2023-03-08T05:03:19;51.13;;;26.83;;
43519;SDS011;46848;51.980;5.918;2023-03-08T05:05:48;54.67;;;27.40;;
43519;SDS011;46848;51.980;5.918;2023-03-08T05:08:16;57.63;;;27.73;;
43519;SDS011;46848;51.980;5.918;2023-03-08T05:10:46;53.47;;;27.03;;
43519;SDS011;46848;51.980;5.918;2023-03-08T05:13:23;52.30;;;26.97;;
43519;SDS011;46848;51.980;5.918;2023-03-08T05:15:49;54.37;;;29.03;;
43519;SDS011;46848;51.980;5.918;2023-03-08T05:18:15;53.57;;;27.17;;
43519;SDS011;46848;51.980;5.918;2023-03-08T05:20:40;54.33;;;27.83;;
43519;SDS011;46848;51.980;5.918;2023-03-08T05:23:06;53.03;;;25.90;;
43519;SDS011;46848;51.980;5.918;2023-03-08T05:25:32;60.03;;;30.53;;
43519;SDS011;46848;51.980;5.918;2023-03-08T05:27:58;59.43;;;30.33;;
43519;SDS011;46848;51.980;5.918;2023-03-08T05:30:24;65.40;;;32.47;;
43519;SDS011;46848;51.980;5.918;2023-03-08T05:32:50;62.80;;;31.70;;
43519;SDS011;46848;51.980;5.918;2023-03-08T05:35:16;58.23;;;31.07;;
43519;SDS011;46848;51.980;5.918;2023-03-08T05:37:42;62.07;;;31.60;;
43519;SDS011;46848;51.980;5.918;2023-03-08T05:40:07;57.57;;;32.37;;
43519;SDS011;46848;51.980;5.918;2023-03-08T05:42:34;53.20;;;28.73;;
43519;SDS011;46848;51.980;5.918;2023-03-08T05:44:59;58.30;;;32.33;;
43519;SDS011;46848;51.980;5.918;2023-03-08T05:47:25;57.70;;;30.13;;
43519;SDS011;46848;51.980;5.918;2023-03-08T05:49:54;66.40;;;32.60;;
43519;SDS011;46848;51.980;5.918;2023-03-08T05:52:20;57.20;;;28.57;;
43519;SDS011;46848;51.980;5.918;2023-03-08T05:54:46;50.10;;;26.60;;
43519;SDS011;46848;51.980;5.918;2023-03-08T05:57:11;53.50;;;28.60;;
43519;SDS011;46848;51.980;5.918;2023-03-08T05:59:37;56.77;;;31.37;;
43519;SDS011;46848;51.980;5.918;2023-03-08T06:02:02;58.13;;;31.57;;
43519;SDS011;46848;51.980;5.918;2023-03-08T06:04:28;56.90;;;30.97;;
43519;SDS011;46848;51.980;5.918;2023-03-08T06:06:54;67.40;;;33.20;;
43519;SDS011;46848;51.980;5.918;2023-03-08T06:09:19;63.23;;;31.73;;
43519;SDS011;46848;51.980;5.918;2023-03-08T06:11:46;69.70;;;32.90;;
43519;SDS011;46848;51.980;5.918;2023-03-08T06:14:12;64.10;;;32.63;;
43519;SDS011;46848;51.980;5.918;2023-03-08T06:16:37;65.53;;;32.30;;
43519;SDS011;46848;51.980;5.918;2023-03-08T06:19:03;66.50;;;31.47;;
43519;SDS011;46848;51.980;5.918;2023-03-08T06:21:28;62.23;;;29.27;;
43519;SDS011;46848;51.980;5.918;2023-03-08T06:23:54;67.57;;;35.57;;
43519;SDS011;46848;51.980;5.918;2023-03-08T06:26:20;71.13;;;35.37;;
43519;SDS011;46848;51.980;5.918;2023-03-08T06:28:45;65.30;;;33.83;;
43519;SDS011;46848;51.980;5.918;2023-03-08T06:31:12;65.77;;;34.27;;
43519;SDS011;46848;51.980;5.918;2023-03-08T06:33:39;63.93;;;32.97;;
43519;SDS011;46848;51.980;5.918;2023-03-08T06:38:33;52.03;;;28.57;;
43519;SDS011;46848;51.980;5.918;2023-03-08T06:41:00;48.40;;;27.07;;
43519;SDS011;46848;51.980;5.918;2023-03-08T06:43:27;47.40;;;25.63;;
43519;SDS011;46848;51.980;5.918;2023-03-08T06:45:54;43.07;;;23.27;;
43519;SDS011;46848;51.980;5.918;2023-03-08T06:48:20;45.17;;;26.00;;
43519;SDS011;46848;51.980;5.918;2023-03-08T06:50:47;47.23;;;26.23;;
43519;SDS011;46848;51.980;5.918;2023-03-08T06:53:13;43.03;;;26.60;;
43519;SDS011;46848;51.980;5.918;2023-03-08T06:55:39;41.23;;;23.70;;
43519;SDS011;46848;51.980;5.918;2023-03-08T06:58:07;41.03;;;23.73;;
43519;SDS011;46848;51.980;5.918;2023-03-08T07:00:33;37.03;;;20.50;;
43519;SDS011;46848;51.980;5.918;2023-03-08T07:03:00;34.13;;;20.93;;
43519;SDS011;46848;51.980;5.918;2023-03-08T07:05:29;36.50;;;20.03;;
43519;SDS011;46848;51.980;5.918;2023-03-08T07:07:55;32.10;;;18.97;;
43519;SDS011;46848;51.980;5.918;2023-03-08T07:10:33;35.53;;;19.67;;
43519;SDS011;46848;51.980;5.918;2023-03-08T07:12:59;36.70;;;20.93;;
43519;SDS011;46848;51.980;5.918;2023-03-08T07:15:24;36.67;;;21.53;;
43519;SDS011;46848;51.980;5.918;2023-03-08T07:17:52;37.77;;;20.67;;
43519;SDS011;46848;51.980;5.918;2023-03-08T07:20:20;38.90;;;21.57;;
43519;SDS011;46848;51.980;5.918;2023-03-08T07:22:47;44.13;;;23.17;;
43519;SDS011;46848;51.980;5.918;2023-03-08T07:25:14;43.00;;;22.87;;
43519;SDS011;46848;51.980;5.918;2023-03-08T07:27:41;37.70;;;19.50;;
43519;SDS011;46848;51.980;5.918;2023-03-08T07:30:08;38.77;;;21.70;;
43519;SDS011;46848;51.980;5.918;2023-03-08T07:32:36;35.80;;;18.87;;
43519;SDS011;46848;51.980;5.918;2023-03-08T07:35:04;42.53;;;24.20;;
43519;SDS011;46848;51.980;5.918;2023-03-08T07:37:31;48.00;;;23.80;;
43519;SDS011;46848;51.980;5.918;2023-03-08T07:39:57;47.80;;;25.93;;
43519;SDS011;46848;51.980;5.918;2023-03-08T07:42:23;43.23;;;22.63;;
43519;SDS011;46848;51.980;5.918;2023-03-08T07:44:48;55.47;;;27.63;;
43519;SDS011;46848;51.980;5.918;2023-03-08T07:47:15;53.70;;;30.07;;
43519;SDS011;46848;51.980;5.918;2023-03-08T07:49:41;52.40;;;28.80;;
43519;SDS011;46848;51.980;5.918;2023-03-08T07:52:06;54.50;;;28.67;;
43519;SDS011;46848;51.980;5.918;2023-03-08T07:54:32;51.97;;;28.53;;
43519;SDS011;46848;51.980;5.918;2023-03-08T07:56:58;58.17;;;29.97;;
43519;SDS011;46848;51.980;5.918;2023-03-08T07:59:23;60.83;;;31.17;;
43519;SDS011;46848;51.980;5.918;2023-03-08T08:01:49;56.33;;;29.53;;
43519;SDS011;46848;51.980;5.918;2023-03-08T08:04:15;55.27;;;29.00;;
43519;SDS011;46848;51.980;5.918;2023-03-08T08:06:41;65.77;;;32.97;;
43519;SDS011;46848;51.980;5.918;2023-03-08T08:09:07;62.30;;;32.67;;
43519;SDS011;46848;51.980;5.918;2023-03-08T08:11:33;63.43;;;33.00;;
43519;SDS011;46848;51.980;5.918;2023-03-08T08:13:59;61.97;;;33.63;;
43519;SDS011;46848;51.980;5.918;2023-03-08T08:16:25;58.33;;;31.23;;
43519;SDS011;46848;51.980;5.918;2023-03-08T08:18:51;63.83;;;31.43;;
43519;SDS011;46848;51.980;5.918;2023-03-08T08:21:18;61.93;;;32.40;;
43519;SDS011;46848;51.980;5.918;2023-03-08T08:23:45;56.00;;;29.67;;
43519;SDS011;46848;51.980;5.918;2023-03-08T08:26:15;61.47;;;31.87;;
43519;SDS011;46848;51.980;5.918;2023-03-08T08:28:42;61.03;;;32.50;;
43519;SDS011;46848;51.980;5.918;2023-03-08T08:31:14;53.20;;;29.50;;
43519;SDS011;46848;51.980;5.918;2023-03-08T08:33:41;58.45;;;29.38;;
43519;SDS011;46848;51.980;5.918;2023-03-08T08:36:08;56.03;;;29.90;;
43519;SDS011;46848;51.980;5.918;2023-03-08T08:38:36;55.43;;;30.03;;
43519;SDS011;46848;51.980;5.918;2023-03-08T08:41:03;61.03;;;31.10;;
43519;SDS011;46848;51.980;5.918;2023-03-08T08:43:31;53.27;;;29.67;;
43519;SDS011;46848;51.980;5.918;2023-03-08T08:45:58;53.83;;;28.93;;
43519;SDS011;46848;51.980;5.918;2023-03-08T08:48:25;46.47;;;26.37;;
43519;SDS011;46848;51.980;5.918;2023-03-08T08:50:51;48.83;;;26.37;;
43519;SDS011;46848;51.980;5.918;2023-03-08T08:53:18;48.07;;;26.03;;
43519;SDS011;46848;51.980;5.918;2023-03-08T08:55:44;40.57;;;23.57;;
43519;SDS011;46848;51.980;5.918;2023-03-08T08:58:10;37.77;;;20.93;;
43519;SDS011;46848;51.980;5.918;2023-03-08T09:00:36;37.03;;;20.77;;
43519;SDS011;46848;51.980;5.918;2023-03-08T09:03:02;36.00;;;21.20;;
43519;SDS011;46848;51.980;5.918;2023-03-08T09:05:29;31.33;;;19.37;;
43519;SDS011;46848;51.980;5.918;2023-03-08T09:07:57;35.87;;;19.87;;
43519;SDS011;46848;51.980;5.918;2023-03-08T09:10:27;36.00;;;20.10;;
43519;SDS011;46848;51.980;5.918;2023-03-08T09:12:56;36.00;;;21.10;;
43519;SDS011;46848;51.980;5.918;2023-03-08T09:15:22;40.00;;;22.23;;
43519;SDS011;46848;51.980;5.918;2023-03-08T09:17:49;35.33;;;20.60;;
43519;SDS011;46848;51.980;5.918;2023-03-08T09:22:41;33.67;;;20.23;;
43519;SDS011;46848;51.980;5.918;2023-03-08T09:25:07;33.43;;;19.73;;
43519;SDS011;46848;51.980;5.918;2023-03-08T09:27:34;35.17;;;20.40;;
43519;SDS011;46848;51.980;5.918;2023-03-08T09:30:01;32.77;;;19.77;;
43519;SDS011;46848;51.980;5.918;2023-03-08T09:32:27;32.63;;;19.13;;
43519;SDS011;46848;51.980;5.918;2023-03-08T09:34:56;29.47;;;16.90;;
43519;SDS011;46848;51.980;5.918;2023-03-08T09:37:22;31.43;;;16.90;;
43519;SDS011;46848;51.980;5.918;2023-03-08T09:39:49;24.97;;;15.47;;
43519;SDS011;46848;51.980;5.918;2023-03-08T09:42:17;24.87;;;14.50;;
43519;SDS011;46848;51.980;5.918;2023-03-08T09:52:47;27.63;;;15.50;;
43519;SDS011;46848;51.980;5.918;2023-03-08T09:57:54;24.43;;;15.23;;
43519;SDS011;46848;51.980;5.918;2023-03-08T10:00:33;25.30;;;14.35;;
43519;SDS011;46848;51.980;5.918;2023-03-08T10:05:44;21.63;;;13.37;;
43519;SDS011;46848;51.980;5.918;2023-03-08T10:08:25;27.47;;;14.70;;
43519;SDS011;46848;51.980;5.918;2023-03-08T10:11:00;22.10;;;13.43;;
43519;SDS011;46848;51.980;5.918;2023-03-08T10:13:41;21.07;;;13.27;;
43519;SDS011;46848;51.980;5.918;2023-03-08T10:19:10;23.77;;;13.07;;
43519;SDS011;46848;51.980;5.918;2023-03-08T10:21:42;20.02;;;11.60;;
43519;SDS011;46848;51.980;5.918;2023-03-08T10:24:13;21.93;;;12.50;;
43519;SDS011;46848;51.980;5.918;2023-03-08T10:26:41;24.83;;;12.38;;
43519;SDS011;46848;51.980;5.918;2023-03-08T10:29:11;20.23;;;10.93;;
43519;SDS011;46848;51.980;5.918;2023-03-08T10:31:38;17.57;;;11.17;;
43519;SDS011;46848;51.980;5.918;2023-03-08T10:34:14;20.03;;;11.03;;
43519;SDS011;46848;51.980;5.918;2023-03-08T10:36:48;22.50;;;13.17;;
43519;SDS011;46848;51.980;5.918;2023-03-08T10:39:28;22.23;;;12.17;;
43519;SDS011;46848;51.980;5.918;2023-03-08T10:41:55;22.50;;;13.23;;
43519;SDS011;46848;51.980;5.918;2023-03-08T10:46:57;26.23;;;13.87;;
43519;SDS011;46848;51.980;5.918;2023-03-08T10:49:23;19.67;;;12.47;;
43519;SDS011;46848;51.980;5.918;2023-03-08T10:51:57;19.80;;;11.37;;
43519;SDS011;46848;51.980;5.918;2023-03-08T10:54:25;18.03;;;11.20;;
43519;SDS011;46848;51.980;5.918;2023-03-08T10:57:01;16.13;;;9.63;;
43519;SDS011;46848;51.980;5.918;2023-03-08T10:59:33;20.27;;;10.87;;
43519;SDS011;46848;51.980;5.918;2023-03-08T11:02:01;16.27;;;10.10;;
43519;SDS011;46848;51.980;5.918;2023-03-08T11:04:51;17.23;;;9.23;;
43519;SDS011;46848;51.980;5.918;2023-03-08T11:07:25;18.83;;;10.53;;
43519;SDS011;46848;51.980;5.918;2023-03-08T11:10:13;15.57;;;8.90;;
43519;SDS011;46848;51.980;5.918;2023-03-08T11:12:41;14.50;;;9.27;;
43519;SDS011;46848;51.980;5.918;2023-03-08T11:18:00;16.97;;;10.47;;
43519;SDS011;46848;51.980;5.918;2023-03-08T11:20:57;17.43;;;10.80;;
43519;SDS011;46848;51.980;5.918;2023-03-08T11:23:38;20.57;;;11.37;;
43519;SDS011;46848;51.980;5.918;2023-03-08T11:26:29;19.70;;;10.70;;
43519;SDS011;46848;51.980;5.918;2023-03-08T11:32:13;23.87;;;11.83;;
43519;SDS011;46848;51.980;5.918;2023-03-08T11:51:31;21.27;;;12.43;;
43519;SDS011;46848;51.980;5.918;2023-03-08T11:57:20;21.10;;;13.37;;
43519;SDS011;46848;51.980;5.918;2023-03-08T11:59:52;20.87;;;13.10;;
43519;SDS011;46848;51.980;5.918;2023-03-08T12:02:33;20.60;;;13.30;;
43519;SDS011;46848;51.980;5.918;2023-03-08T12:07:40;20.17;;;12.00;;
43519;SDS011;46848;51.980;5.918;2023-03-08T12:13:19;22.48;;;13.73;;
43519;SDS011;46848;51.980;5.918;2023-03-08T12:15:52;23.17;;;14.00;;
43519;SDS011;46848;51.980;5.918;2023-03-08T12:27:04;21.13;;;13.03;;
43519;SDS011;46848;51.980;5.918;2023-03-08T12:29:48;17.60;;;11.07;;
43519;SDS011;46848;51.980;5.918;2023-03-08T12:32:22;17.83;;;11.43;;
43519;SDS011;46848;51.980;5.918;2023-03-08T12:34:59;18.73;;;11.60;;
43519;SDS011;46848;51.980;5.918;2023-03-08T12:37:32;15.90;;;10.63;;
43519;SDS011;46848;51.980;5.918;2023-03-08T12:40:04;16.83;;;10.00;;
43519;SDS011;46848;51.980;5.918;2023-03-08T12:42:34;16.23;;;11.15;;
43519;SDS011;46848;51.980;5.918;2023-03-08T12:48:08;16.10;;;10.03;;
43519;SDS011;46848;51.980;5.918;2023-03-08T12:51:29;16.57;;;10.30;;
43519;SDS011;46848;51.980;5.918;2023-03-08T12:53:43;15.23;;;9.67;;
43519;SDS011;46848;51.980;5.918;2023-03-08T12:56:25;14.87;;;9.23;;
43519;SDS011;46848;51.980;5.918;2023-03-08T13:01:39;15.40;;;8.43;;
43519;SDS011;46848;51.980;5.918;2023-03-08T13:10:28;13.77;;;8.90;;
43519;SDS011;46848;51.980;5.918;2023-03-08T13:16:16;13.13;;;7.90;;
43519;SDS011;46848;51.980;5.918;2023-03-08T13:19:01;12.40;;;7.37;;
43519;SDS011;46848;51.980;5.918;2023-03-08T13:21:48;12.07;;;7.17;;
43519;SDS011;46848;51.980;5.918;2023-03-08T13:24:30;10.90;;;7.10;;
43519;SDS011;46848;51.980;5.918;2023-03-08T13:30:22;11.30;;;7.20;;
43519;SDS011;46848;51.980;5.918;2023-03-08T13:32:47;11.17;;;6.90;;
43519;SDS011;46848;51.980;5.918;2023-03-08T13:35:14;11.23;;;6.80;;
43519;SDS011;46848;51.980;5.918;2023-03-08T13:37:41;10.30;;;6.43;;
43519;SDS011;46848;51.980;5.918;2023-03-08T13:40:15;12.17;;;7.20;;
43519;SDS011;46848;51.980;5.918;2023-03-08T13:42:52;8.87;;;5.57;;
43519;SDS011;46848;51.980;5.918;2023-03-08T13:45:19;9.13;;;5.97;;
43519;SDS011;46848;51.980;5.918;2023-03-08T13:47:45;10.03;;;6.50;;
43519;SDS011;46848;51.980;5.918;2023-03-08T13:50:53;9.57;;;5.77;;
43519;SDS011;46848;51.980;5.918;2023-03-08T13:53:02;8.43;;;5.70;;
43519;SDS011;46848;51.980;5.918;2023-03-08T13:55:34;9.30;;;5.73;;
43519;SDS011;46848;51.980;5.918;2023-03-08T13:58:20;8.40;;;5.63;;
43519;SDS011;46848;51.980;5.918;2023-03-08T14:10:23;9.43;;;6.43;;
43519;SDS011;46848;51.980;5.918;2023-03-08T14:13:05;9.73;;;6.57;;
43519;SDS011;46848;51.980;5.918;2023-03-08T14:22:09;9.85;;;6.18;;
43519;SDS011;46848;51.980;5.918;2023-03-08T14:24:56;11.37;;;6.80;;
43519;SDS011;46848;51.980;5.918;2023-03-08T14:30:11;10.43;;;6.43;;
43519;SDS011;46848;51.980;5.918;2023-03-08T14:32:37;10.87;;;5.77;;
43519;SDS011;46848;51.980;5.918;2023-03-08T14:35:04;9.60;;;6.67;;
43519;SDS011;46848;51.980;5.918;2023-03-08T14:37:42;11.17;;;6.43;;
43519;SDS011;46848;51.980;5.918;2023-03-08T14:45:38;10.90;;;6.70;;
43519;SDS011;46848;51.980;5.918;2023-03-08T14:50:57;10.67;;;7.30;;
43519;SDS011;46848;51.980;5.918;2023-03-08T14:53:30;9.70;;;6.50;;
43519;SDS011;46848;51.980;5.918;2023-03-08T14:55:59;11.03;;;7.07;;
43519;SDS011;46848;51.980;5.918;2023-03-08T14:58:29;11.03;;;6.73;;
43519;SDS011;46848;51.980;5.918;2023-03-08T15:00:57;10.93;;;6.60;;
43519;SDS011;46848;51.980;5.918;2023-03-08T15:03:25;9.87;;;6.50;;
43519;SDS011;46848;51.980;5.918;2023-03-08T15:05:52;11.23;;;7.43;;
43519;SDS011;46848;51.980;5.918;2023-03-08T15:08:19;10.13;;;7.03;;
43519;SDS011;46848;51.980;5.918;2023-03-08T15:10:45;12.67;;;7.00;;
43519;SDS011;46848;51.980;5.918;2023-03-08T15:13:18;10.57;;;7.50;;
43519;SDS011;46848;51.980;5.918;2023-03-08T15:15:45;11.67;;;7.23;;
43519;SDS011;46848;51.980;5.918;2023-03-08T15:18:11;9.70;;;6.47;;
43519;SDS011;46848;51.980;5.918;2023-03-08T15:20:38;11.43;;;6.77;;
43519;SDS011;46848;51.980;5.918;2023-03-08T15:23:09;10.48;;;7.00;;
43519;SDS011;46848;51.980;5.918;2023-03-08T15:25:49;10.00;;;6.13;;
43519;SDS011;46848;51.980;5.918;2023-03-08T15:28:15;10.97;;;6.80;;
43519;SDS011;46848;51.980;5.918;2023-03-08T15:30:42;10.93;;;6.90;;
43519;SDS011;46848;51.980;5.918;2023-03-08T15:33:08;9.80;;;6.03;;
43519;SDS011;46848;51.980;5.918;2023-03-08T15:35:34;13.30;;;7.50;;
43519;SDS011;46848;51.980;5.918;2023-03-08T15:38:01;11.23;;;7.23;;
43519;SDS011;46848;51.980;5.918;2023-03-08T15:40:28;13.67;;;8.63;;
43519;SDS011;46848;51.980;5.918;2023-03-08T15:42:56;11.30;;;7.23;;
43519;SDS011;46848;51.980;5.918;2023-03-08T15:45:22;12.77;;;7.60;;
43519;SDS011;46848;51.980;5.918;2023-03-08T15:48:00;11.80;;;7.47;;
43519;SDS011;46848;51.980;5.918;2023-03-08T15:50:27;13.43;;;8.27;;
43519;SDS011;46848;51.980;5.918;2023-03-08T15:52:54;13.37;;;7.87;;
43519;SDS011;46848;51.980;5.918;2023-03-08T15:55:21;12.67;;;8.17;;
43519;SDS011;46848;51.980;5.918;2023-03-08T15:57:47;13.43;;;8.60;;
43519;SDS011;46848;51.980;5.918;2023-03-08T16:00:14;11.80;;;8.13;;
43519;SDS011;46848;51.980;5.918;2023-03-08T16:02:42;12.80;;;8.50;;
43519;SDS011;46848;51.980;5.918;2023-03-08T16:05:08;12.40;;;8.77;;
43519;SDS011;46848;51.980;5.918;2023-03-08T16:07:38;13.60;;;8.90;;
43519;SDS011;46848;51.980;5.918;2023-03-08T16:10:04;13.13;;;7.90;;
43519;SDS011;46848;51.980;5.918;2023-03-08T16:12:33;13.70;;;9.17;;
43519;SDS011;46848;51.980;5.918;2023-03-08T16:14:58;13.03;;;8.67;;
43519;SDS011;46848;51.980;5.918;2023-03-08T16:17:24;11.80;;;8.17;;
43519;SDS011;46848;51.980;5.918;2023-03-08T16:19:52;12.97;;;8.60;;
43519;SDS011;46848;51.980;5.918;2023-03-08T16:22:19;14.30;;;8.33;;
43519;SDS011;46848;51.980;5.918;2023-03-08T16:24:46;13.60;;;9.33;;
43519;SDS011;46848;51.980;5.918;2023-03-08T16:27:11;13.83;;;8.47;;
43519;SDS011;46848;51.980;5.918;2023-03-08T16:29:39;15.90;;;9.60;;
43519;SDS011;46848;51.980;5.918;2023-03-08T16:32:05;13.37;;;9.57;;